createdAt,value
2019-03-11T00:03:34.480Z,3.40
2019-03-11T00:13:32.887Z,3.40
2019-03-11T00:22:14.280Z,3.40
2019-03-11T00:26:18.828Z,3.40
2019-03-11T00:30:23.371Z,3.40
2019-03-11T00:34:27.927Z,3.50
2019-03-11T00:38:32.476Z,3.60
2019-03-11T00:42:36.991Z,3.50
2019-03-11T00:46:41.543Z,3.40
2019-03-11T00:50:46.103Z,3.40
2019-03-11T00:59:50.115Z,3.30
2019-03-11T01:07:37.315Z,3.30
2019-03-11T01:11:41.876Z,3.30
2019-03-11T01:15:46.422Z,3.30
2019-03-11T01:19:51.247Z,3.30
2019-03-11T01:23:55.835Z,3.30
2019-03-11T01:28:00.343Z,3.30
2019-03-11T01:32:04.888Z,3.30
2019-03-11T01:40:17.095Z,3.30
2019-03-11T01:44:21.683Z,3.20
2019-03-11T01:48:26.199Z,3.30
2019-03-11T01:52:44.383Z,3.20
2019-03-11T01:56:48.939Z,3.20
2019-03-11T02:00:53.495Z,3.20
2019-03-11T02:06:18.891Z,3.20
2019-03-11T02:10:23.435Z,3.20
2019-03-11T02:15:29.596Z,3.20
2019-03-11T02:22:19.180Z,3.20
2019-03-11T02:26:23.737Z,3.20
2019-03-11T02:32:53.446Z,3.20
2019-03-11T02:37:12.794Z,3.20
2019-03-11T02:44:05.908Z,3.20
2019-03-11T02:48:10.465Z,3.30
2019-03-11T02:52:15.029Z,3.30
2019-03-11T02:56:19.547Z,3.30
2019-03-11T03:00:24.097Z,3.30
2019-03-11T03:04:32.667Z,3.30
2019-03-11T03:11:02.836Z,3.20
2019-03-11T03:16:45.634Z,3.20
2019-03-11T03:21:45.884Z,3.20
2019-03-11T03:32:10.777Z,3.10
2019-03-11T03:36:15.321Z,3.10
2019-03-11T03:42:34.406Z,3.10
2019-03-11T03:52:03.193Z,3.10
2019-03-11T03:56:55.921Z,3.10
2019-03-11T04:02:17.248Z,3.10
2019-03-11T04:07:36.925Z,3.10
2019-03-11T04:15:46.817Z,3.10
2019-03-11T04:22:16.619Z,3.10
2019-03-11T04:41:13.928Z,3.10
2019-03-11T04:53:47.252Z,3.10
2019-03-11T04:57:53.210Z,3.10
2019-03-11T05:01:57.782Z,3.10
2019-03-11T05:06:02.341Z,3.10
2019-03-11T05:10:07.455Z,3.10
2019-03-11T05:14:11.988Z,3.10
2019-03-11T05:24:33.167Z,3.00
2019-03-11T05:38:39.283Z,3.00
2019-03-11T05:43:51.543Z,3.00
2019-03-11T05:47:56.084Z,3.00
2019-03-11T05:52:00.645Z,3.00
2019-03-11T05:56:05.216Z,3.00
2019-03-11T06:01:57.894Z,3.00
2019-03-11T06:06:02.495Z,3.10
2019-03-11T06:10:07.724Z,3.10
2019-03-11T06:14:12.300Z,3.10
2019-03-11T06:24:24.609Z,3.10
2019-03-11T06:28:29.142Z,3.10
2019-03-11T06:32:33.690Z,3.20
2019-03-11T06:36:38.267Z,3.20
2019-03-11T06:42:47.430Z,3.20
2019-03-11T06:46:51.967Z,3.30
2019-03-11T06:51:52.511Z,3.30
2019-03-11T06:55:57.075Z,3.20
2019-03-11T07:00:04.187Z,3.30
2019-03-11T07:04:08.783Z,3.30
2019-03-11T07:08:13.399Z,3.30
2019-03-11T07:16:55.459Z,3.30
2019-03-11T07:21:01.154Z,3.30
2019-03-11T07:25:05.972Z,3.40
2019-03-11T07:29:10.532Z,3.50
2019-03-11T07:33:15.106Z,3.50
2019-03-11T07:37:19.776Z,3.60
2019-03-11T07:41:24.501Z,3.70
2019-03-11T07:45:29.072Z,3.80
2019-03-11T07:49:33.640Z,3.90
2019-03-11T07:53:38.229Z,3.90
2019-03-11T07:57:42.883Z,4.00
2019-03-11T08:01:47.509Z,4.00
2019-03-11T08:05:52.068Z,3.90
2019-03-11T08:09:56.635Z,4.00
2019-03-11T08:14:01.187Z,4.00
2019-03-11T08:18:05.804Z,4.00
2019-03-11T08:22:10.365Z,4.00
2019-03-11T08:26:14.933Z,4.10
2019-03-11T08:30:19.815Z,4.10
2019-03-11T08:34:24.380Z,4.20
2019-03-11T08:38:28.940Z,4.30
2019-03-11T08:44:03.378Z,4.20
2019-03-11T08:48:07.960Z,4.20
2019-03-11T08:52:12.537Z,4.20
2019-03-11T08:56:17.109Z,4.10
2019-03-11T09:00:22.294Z,4.10
2019-03-11T09:04:26.921Z,4.10
2019-03-11T09:08:31.559Z,4.00
2019-03-11T09:12:36.152Z,4.00
2019-03-11T09:19:59.247Z,4.00
2019-03-11T09:24:03.817Z,4.00
2019-03-11T09:28:08.413Z,3.90
2019-03-11T09:32:51.543Z,4.00
2019-03-11T09:36:56.120Z,3.90
2019-03-11T09:41:13.882Z,4.00
2019-03-11T09:45:19.232Z,4.00
2019-03-11T09:49:23.799Z,4.00
2019-03-11T09:53:28.367Z,4.10
2019-03-11T09:57:32.935Z,4.10
2019-03-11T10:01:37.460Z,4.20
2019-03-11T10:05:42.352Z,4.30
2019-03-11T10:09:46.899Z,4.40
2019-03-11T10:13:51.484Z,4.50
2019-03-11T10:17:56.086Z,4.70
2019-03-11T10:22:00.661Z,4.70
2019-03-11T10:26:05.200Z,4.80
2019-03-11T10:30:11.888Z,4.90
2019-03-11T10:34:16.442Z,4.90
2019-03-11T10:38:21.067Z,5.00
2019-03-11T10:42:25.695Z,5.00
2019-03-11T10:46:30.323Z,4.90
2019-03-11T10:50:34.925Z,5.00
2019-03-11T10:54:39.525Z,5.10
2019-03-11T10:58:44.097Z,5.10
2019-03-11T11:02:48.640Z,5.20
2019-03-11T11:06:55.006Z,5.30
2019-03-11T11:11:00.837Z,5.40
2019-03-11T11:15:18.308Z,5.40
2019-03-11T11:19:22.900Z,5.50
2019-03-11T11:23:27.451Z,5.60
2019-03-11T11:27:31.976Z,5.70
2019-03-11T11:31:36.515Z,5.80
2019-03-11T11:35:41.103Z,5.80
2019-03-11T11:39:45.656Z,5.80
2019-03-11T11:43:50.214Z,5.90
2019-03-11T11:47:54.853Z,5.80
2019-03-11T11:51:59.406Z,5.80
2019-03-11T11:56:03.964Z,5.70
2019-03-11T12:00:11.464Z,5.70
2019-03-11T12:05:36.049Z,5.70
2019-03-11T12:09:40.608Z,5.40
2019-03-11T12:13:45.112Z,5.30
2019-03-11T12:17:49.705Z,5.20
2019-03-11T12:21:54.263Z,5.20
2019-03-11T12:25:58.841Z,5.20
2019-03-11T12:30:03.401Z,5.10
2019-03-11T12:34:07.925Z,5.00
2019-03-11T12:38:12.472Z,5.00
2019-03-11T12:42:17.026Z,5.10
2019-03-11T12:46:21.591Z,5.10
2019-03-11T12:50:26.193Z,5.10
2019-03-11T12:54:30.708Z,5.10
2019-03-11T12:58:41.522Z,5.10
2019-03-11T13:02:41.447Z,5.20
2019-03-11T13:06:46.007Z,5.20
2019-03-11T13:10:50.563Z,5.20
2019-03-11T13:14:55.076Z,5.30
2019-03-11T13:19:12.486Z,5.40
2019-03-11T13:23:07.996Z,5.50
2019-03-11T13:27:12.561Z,5.70
2019-03-11T13:31:17.117Z,5.80
2019-03-11T13:35:21.629Z,6.00
2019-03-11T13:39:26.248Z,6.10
2019-03-11T13:43:30.882Z,6.20
2019-03-11T13:47:35.512Z,6.30
2019-03-11T13:51:41.240Z,6.50
2019-03-11T13:55:45.769Z,6.60
2019-03-11T13:59:50.447Z,6.80
2019-03-11T14:03:55.018Z,6.80
2019-03-11T14:07:59.592Z,6.80
2019-03-11T14:12:04.137Z,6.70
2019-03-11T14:16:08.695Z,6.70
2019-03-11T14:20:13.539Z,6.70
2019-03-11T14:24:18.086Z,6.70
2019-03-11T14:28:22.706Z,6.60
2019-03-11T14:32:27.233Z,6.30
2019-03-11T14:36:31.829Z,6.10
2019-03-11T14:40:36.392Z,6.20
2019-03-11T14:44:40.997Z,6.10
2019-03-11T14:48:45.575Z,6.10
2019-03-11T14:52:50.220Z,6.10
2019-03-11T14:56:54.808Z,6.20
2019-03-11T15:00:59.371Z,6.30
2019-03-11T15:05:03.979Z,6.30
2019-03-11T15:09:11.564Z,6.30
2019-03-11T15:13:16.099Z,6.20
2019-03-11T15:17:20.673Z,6.20
2019-03-11T15:21:25.279Z,6.10
2019-03-11T15:25:29.869Z,6.10
2019-03-11T15:29:36.071Z,6.00
2019-03-11T15:33:40.709Z,6.00
2019-03-11T15:37:45.317Z,5.90
2019-03-11T15:41:49.883Z,5.90
2019-03-11T15:45:54.460Z,5.80
2019-03-11T15:49:58.988Z,5.80
2019-03-11T15:54:03.561Z,5.70
2019-03-11T15:58:08.134Z,5.80
2019-03-11T16:02:12.713Z,5.80
2019-03-11T16:06:17.298Z,5.70
2019-03-11T16:10:21.844Z,5.70
2019-03-11T16:14:26.424Z,5.70
2019-03-11T16:18:52.615Z,5.70
2019-03-11T16:22:57.229Z,5.60
2019-03-11T16:27:01.805Z,5.60
2019-03-11T16:31:06.340Z,5.60
2019-03-11T16:35:11.007Z,5.60
2019-03-11T16:39:15.583Z,5.60
2019-03-11T16:43:20.382Z,5.60
2019-03-11T16:47:24.936Z,5.60
2019-03-11T16:51:29.460Z,5.70
2019-03-11T16:55:36.138Z,5.70
2019-03-11T16:59:40.710Z,5.60
2019-03-11T17:05:38.843Z,5.50
2019-03-11T17:09:43.420Z,5.60
2019-03-11T17:13:48.097Z,5.50
2019-03-11T17:17:52.737Z,5.60
2019-03-11T17:21:57.260Z,5.60
2019-03-11T17:26:01.828Z,5.60
2019-03-11T17:30:07.637Z,5.50
2019-03-11T17:34:12.196Z,5.50
2019-03-11T17:38:17.105Z,5.50
2019-03-11T17:42:21.639Z,5.50
2019-03-11T17:46:26.242Z,5.60
2019-03-11T17:50:30.845Z,5.50
2019-03-11T17:54:35.444Z,5.60
2019-03-11T17:58:40.133Z,5.60
2019-03-11T18:02:44.695Z,5.60
2019-03-11T18:06:49.227Z,5.60
2019-03-11T18:10:53.817Z,5.60
2019-03-11T18:14:58.427Z,5.60
2019-03-11T18:19:03.035Z,5.60
2019-03-11T18:23:07.607Z,5.60
2019-03-11T18:27:12.116Z,5.60
2019-03-11T18:31:16.688Z,5.60
2019-03-11T18:35:21.245Z,5.60
2019-03-11T18:39:25.792Z,5.60
2019-03-11T18:43:41.882Z,5.60
2019-03-11T18:47:36.581Z,5.60
2019-03-11T18:51:41.134Z,5.50
2019-03-11T18:55:45.709Z,5.60
2019-03-11T19:04:37.148Z,5.40
2019-03-11T19:08:41.682Z,5.30
2019-03-11T19:12:46.250Z,5.30
2019-03-11T19:16:50.808Z,5.30
2019-03-11T19:20:55.410Z,5.30
2019-03-11T19:24:59.982Z,5.30
2019-03-11T19:29:04.628Z,5.30
2019-03-11T19:35:00.656Z,5.30
2019-03-11T19:39:09.953Z,5.30
2019-03-11T19:43:14.471Z,5.30
2019-03-11T19:47:19.045Z,5.30
2019-03-11T19:51:23.611Z,5.30
2019-03-11T19:55:28.172Z,5.30
2019-03-11T19:59:32.801Z,5.30
2019-03-11T20:03:37.383Z,5.30
2019-03-11T20:07:41.980Z,5.30
2019-03-11T20:11:46.500Z,5.30
2019-03-11T20:15:53.828Z,5.20
2019-03-11T20:19:57.370Z,5.30
2019-03-11T20:24:02.014Z,5.30
2019-03-11T20:28:06.760Z,5.30
2019-03-11T20:32:11.479Z,5.30
2019-03-11T20:36:20.982Z,5.30
2019-03-11T20:40:22.413Z,5.40
2019-03-11T20:44:26.971Z,5.40
2019-03-11T20:48:31.561Z,5.40
2019-03-11T20:52:36.085Z,5.40
2019-03-11T20:56:40.680Z,5.40
2019-03-11T21:00:45.288Z,5.50
2019-03-11T21:04:49.803Z,5.50
2019-03-11T21:08:54.403Z,5.40
2019-03-11T21:12:58.922Z,5.50
2019-03-11T21:17:03.513Z,5.40
2019-03-11T21:21:08.251Z,5.40
2019-03-11T21:25:14.942Z,5.40
2019-03-11T21:29:19.529Z,5.40
2019-03-11T21:33:24.173Z,5.40
2019-03-11T21:37:28.977Z,5.30
2019-03-11T21:41:33.609Z,5.20
2019-03-11T21:45:38.230Z,5.20
2019-03-11T21:49:42.784Z,5.10
2019-03-11T21:53:47.378Z,5.10
2019-03-11T21:57:52.168Z,5.10
2019-03-11T22:04:52.480Z,5.00
2019-03-11T22:08:56.997Z,5.00
2019-03-11T22:13:01.577Z,5.00
2019-03-11T22:17:06.088Z,5.00
2019-03-11T22:21:10.667Z,5.00
2019-03-11T22:25:15.438Z,5.00
2019-03-11T22:29:19.993Z,5.00
2019-03-11T22:33:24.594Z,5.00
2019-03-11T22:37:29.214Z,5.00
2019-03-11T22:41:33.760Z,5.00
2019-03-11T22:45:38.308Z,5.00
2019-03-11T22:49:42.869Z,5.00
2019-03-11T22:53:47.743Z,5.00
2019-03-11T22:57:52.261Z,5.00
2019-03-11T23:01:56.912Z,4.90
2019-03-11T23:06:01.618Z,5.00
2019-03-11T23:10:06.437Z,5.00
2019-03-11T23:14:10.980Z,5.00
2019-03-11T23:18:15.544Z,5.00
2019-03-11T23:22:20.116Z,5.00
2019-03-11T23:26:24.668Z,5.10
2019-03-11T23:30:29.236Z,5.00
2019-03-11T23:34:33.776Z,5.00
2019-03-11T23:38:38.284Z,5.00
2019-03-11T23:42:42.836Z,5.00
2019-03-11T23:46:47.383Z,5.00
2019-03-11T23:50:51.939Z,5.00
2019-03-11T23:58:53.100Z,5.10
